sensor_id;sensor_type;location;lat;lon;timestamp;pressure;altitude;pressure_sealevel;temperature;humidity
25610;BME280;13479;49.044;8.716;2023-04-06T04:01:51;99088.56;;;0.71;62.63
25610;BME280;13479;49.044;8.716;2023-04-06T04:04:17;99117.03;;;0.77;62.25
25610;BME280;13479;49.044;8.716;2023-04-06T04:06:42;99120.97;;;0.67;63.02
25610;BME280;13479;49.044;8.716;2023-04-06T04:09:07;99110.41;;;0.49;63.41
25610;BME280;13479;49.044;8.716;2023-04-06T04:11:33;99088.06;;;0.42;63.69
25610;BME280;13479;49.044;8.716;2023-04-06T04:13:58;99082.06;;;0.40;63.77
25610;BME280;13479;49.044;8.716;2023-04-06T04:16:23;99092.38;;;0.43;63.16
25610;BME280;13479;49.044;8.716;2023-04-06T04:18:48;99104.34;;;0.28;63.87
25610;BME280;13479;49.044;8.716;2023-04-06T04:21:14;99093.69;;;0.33;63.71
25610;BME280;13479;49.044;8.716;2023-04-06T04:23:39;99106.34;;;0.21;64.05
25610;BME280;13479;49.044;8.716;2023-04-06T04:26:05;99105.75;;;0.14;64.15
25610;BME280;13479;49.044;8.716;2023-04-06T04:28:30;99119.00;;;0.30;63.63
25610;BME280;13479;49.044;8.716;2023-04-06T04:30:56;99128.16;;;0.20;63.54
25610;BME280;13479;49.044;8.716;2023-04-06T04:33:21;99150.91;;;0.39;62.87
25610;BME280;13479;49.044;8.716;2023-04-06T04:35:46;99188.44;;;0.57;62.57
25610;BME280;13479;49.044;8.716;2023-04-06T04:38:12;99210.91;;;0.40;62.41
25610;BME280;13479;49.044;8.716;2023-04-06T04:40:37;99193.41;;;0.22;63.52
25610;BME280;13479;49.044;8.716;2023-04-06T04:43:02;99165.22;;;0.28;63.50
25610;BME280;13479;49.044;8.716;2023-04-06T04:45:28;99146.03;;;0.29;63.51
25610;BME280;13479;49.044;8.716;2023-04-06T04:47:53;99147.22;;;0.22;63.80
25610;BME280;13479;49.044;8.716;2023-04-06T04:50:18;99136.50;;;0.28;63.30
25610;BME280;13479;49.044;8.716;2023-04-06T04:52:44;99140.19;;;0.24;63.92
25610;BME280;13479;49.044;8.716;2023-04-06T04:55:09;99120.41;;;0.19;64.51
25610;BME280;13479;49.044;8.716;2023-04-06T04:57:34;99093.19;;;0.24;64.49
25610;BME280;13479;49.044;8.716;2023-04-06T05:00:00;99098.66;;;0.18;64.54
25610;BME280;13479;49.044;8.716;2023-04-06T05:02:26;99105.38;;;0.24;65.07
25610;BME280;13479;49.044;8.716;2023-04-06T05:04:51;99121.09;;;0.43;64.20
25610;BME280;13479;49.044;8.716;2023-04-06T05:07:17;99144.75;;;0.40;64.61
25610;BME280;13479;49.044;8.716;2023-04-06T05:09:43;99143.63;;;0.45;64.30
25610;BME280;13479;49.044;8.716;2023-04-06T05:12:09;99153.38;;;0.42;64.60
25610;BME280;13479;49.044;8.716;2023-04-06T05:14:35;99157.56;;;0.25;64.64
25610;BME280;13479;49.044;8.716;2023-04-06T05:17:00;99135.94;;;0.22;65.12
25610;BME280;13479;49.044;8.716;2023-04-06T05:19:26;99133.84;;;0.30;65.35
25610;BME280;13479;49.044;8.716;2023-04-06T05:21:51;99119.69;;;0.36;64.98
25610;BME280;13479;49.044;8.716;2023-04-06T05:24:17;99142.53;;;0.51;64.72
25610;BME280;13479;49.044;8.716;2023-04-06T05:26:42;99161.88;;;0.68;64.33
25610;BME280;13479;49.044;8.716;2023-04-06T05:29:07;99199.59;;;1.02;63.28
25610;BME280;13479;49.044;8.716;2023-04-06T05:31:33;99261.16;;;1.09;63.09
25610;BME280;13479;49.044;8.716;2023-04-06T05:33:58;99273.28;;;1.12;63.42
25610;BME280;13479;49.044;8.716;2023-04-06T05:36:23;99266.72;;;1.62;63.20
25610;BME280;13479;49.044;8.716;2023-04-06T05:38:49;99281.38;;;2.41;62.47
25610;BME280;13479;49.044;8.716;2023-04-06T05:41:15;99405.41;;;3.32;59.55
25610;BME280;13479;49.044;8.716;2023-04-06T05:43:41;99456.25;;;4.33;57.78
25610;BME280;13479;49.044;8.716;2023-04-06T05:46:06;99453.88;;;5.41;55.93
25610;BME280;13479;49.044;8.716;2023-04-06T05:48:32;99442.56;;;6.43;52.35
25610;BME280;13479;49.044;8.716;2023-04-06T05:50:57;99436.66;;;7.36;49.62
25610;BME280;13479;49.044;8.716;2023-04-06T05:53:23;99435.63;;;8.29;47.40
25610;BME280;13479;49.044;8.716;2023-04-06T05:55:51;99433.78;;;9.06;44.67
25610;BME280;13479;49.044;8.716;2023-04-06T05:58:16;99438.38;;;9.86;42.04
25610;BME280;13479;49.044;8.716;2023-04-06T06:00:42;99437.50;;;10.44;40.58
25610;BME280;13479;49.044;8.716;2023-04-06T06:03:08;99437.63;;;11.09;39.48
25610;BME280;13479;49.044;8.716;2023-04-06T06:05:34;99426.50;;;11.90;37.80
25610;BME280;13479;49.044;8.716;2023-04-06T06:07:59;99433.75;;;12.72;36.22
25610;BME280;13479;49.044;8.716;2023-04-06T06:10:27;99443.56;;;13.51;34.62
25610;BME280;13479;49.044;8.716;2023-04-06T06:12:53;99436.41;;;14.19;33.64
25610;BME280;13479;49.044;8.716;2023-04-06T06:15:18;99431.31;;;14.91;32.46
25610;BME280;13479;49.044;8.716;2023-04-06T06:17:43;99428.75;;;15.54;30.26
25610;BME280;13479;49.044;8.716;2023-04-06T06:20:10;99425.31;;;16.06;30.14
25610;BME280;13479;49.044;8.716;2023-04-06T06:22:35;99429.19;;;16.81;28.86
25610;BME280;13479;49.044;8.716;2023-04-06T06:25:01;99431.97;;;17.22;28.32
25610;BME280;13479;49.044;8.716;2023-04-06T06:27:27;99431.66;;;17.67;27.03
25610;BME280;13479;49.044;8.716;2023-04-06T06:29:52;99431.63;;;18.08;26.61
25610;BME280;13479;49.044;8.716;2023-04-06T06:32:18;99423.75;;;18.63;26.10
25610;BME280;13479;49.044;8.716;2023-04-06T06:34:43;99421.34;;;19.08;24.69
25610;BME280;13479;49.044;8.716;2023-04-06T06:37:09;99410.09;;;19.51;24.18
25610;BME280;13479;49.044;8.716;2023-04-06T06:39:34;99406.41;;;20.05;23.40
25610;BME280;13479;49.044;8.716;2023-04-06T06:42:00;99401.22;;;20.03;22.46
25610;BME280;13479;49.044;8.716;2023-04-06T06:44:26;99398.88;;;20.00;22.92
25610;BME280;13479;49.044;8.716;2023-04-06T06:46:52;99407.19;;;20.14;22.03
25610;BME280;13479;49.044;8.716;2023-04-06T06:49:17;99404.59;;;19.82;21.96
25610;BME280;13479;49.044;8.716;2023-04-06T06:51:43;99407.81;;;19.86;22.82
25610;BME280;13479;49.044;8.716;2023-04-06T06:54:09;99404.31;;;20.30;22.26
25610;BME280;13479;49.044;8.716;2023-04-06T06:56:34;99407.56;;;20.41;22.40
25610;BME280;13479;49.044;8.716;2023-04-06T06:59:02;99405.50;;;20.58;22.38
25610;BME280;13479;49.044;8.716;2023-04-06T07:01:27;99402.72;;;20.36;22.18
25610;BME280;13479;49.044;8.716;2023-04-06T07:03:52;99397.97;;;20.23;22.83
25610;BME280;13479;49.044;8.716;2023-04-06T07:06:18;99402.66;;;19.76;22.93
25610;BME280;13479;49.044;8.716;2023-04-06T07:08:43;99404.78;;;19.42;23.62
25610;BME280;13479;49.044;8.716;2023-04-06T07:11:08;99397.66;;;19.50;23.67
25610;BME280;13479;49.044;8.716;2023-04-06T07:13:33;99398.25;;;19.60;23.36
25610;BME280;13479;49.044;8.716;2023-04-06T07:15:59;99389.72;;;20.10;23.04
25610;BME280;13479;49.044;8.716;2023-04-06T07:18:24;99386.91;;;20.48;23.19
25610;BME280;13479;49.044;8.716;2023-04-06T07:20:50;99387.63;;;20.57;22.96
25610;BME280;13479;49.044;8.716;2023-04-06T07:23:15;99398.53;;;20.33;23.11
25610;BME280;13479;49.044;8.716;2023-04-06T07:25:41;99387.19;;;20.23;23.62
25610;BME280;13479;49.044;8.716;2023-04-06T07:28:07;99400.97;;;19.98;23.42
25610;BME280;13479;49.044;8.716;2023-04-06T07:30:32;99393.66;;;19.84;23.84
25610;BME280;13479;49.044;8.716;2023-04-06T07:32:57;99384.31;;;20.10;23.49
25610;BME280;13479;49.044;8.716;2023-04-06T07:35:25;99389.88;;;20.38;23.23
25610;BME280;13479;49.044;8.716;2023-04-06T07:37:51;99395.53;;;20.58;22.42
25610;BME280;13479;49.044;8.716;2023-04-06T07:40:17;99383.50;;;20.91;21.76
25610;BME280;13479;49.044;8.716;2023-04-06T07:42:43;99385.09;;;21.72;20.75
25610;BME280;13479;49.044;8.716;2023-04-06T07:45:08;99374.53;;;21.77;19.84
25610;BME280;13479;49.044;8.716;2023-04-06T07:47:34;99377.16;;;22.34;19.67
25610;BME280;13479;49.044;8.716;2023-04-06T07:49:59;99377.44;;;23.14;18.36
25610;BME280;13479;49.044;8.716;2023-04-06T07:52:25;99376.22;;;23.91;17.68
25610;BME280;13479;49.044;8.716;2023-04-06T07:54:50;99375.22;;;24.51;17.50
25610;BME280;13479;49.044;8.716;2023-04-06T07:57:15;99375.44;;;25.02;17.45
25610;BME280;13479;49.044;8.716;2023-04-06T07:59:41;99383.81;;;26.01;16.93
25610;BME280;13479;49.044;8.716;2023-04-06T08:02:06;99380.25;;;27.24;16.06
25610;BME280;13479;49.044;8.716;2023-04-06T08:04:31;99380.22;;;27.79;15.24
25610;BME280;13479;49.044;8.716;2023-04-06T08:06:57;99372.84;;;27.91;15.35
25610;BME280;13479;49.044;8.716;2023-04-06T08:09:22;99375.94;;;27.47;15.38
25610;BME280;13479;49.044;8.716;2023-04-06T08:11:48;99382.97;;;26.45;16.29
25610;BME280;13479;49.044;8.716;2023-04-06T08:14:14;99386.47;;;25.89;17.10
25610;BME280;13479;49.044;8.716;2023-04-06T08:16:41;99386.97;;;26.42;16.83
25610;BME280;13479;49.044;8.716;2023-04-06T08:19:06;99392.84;;;26.95;15.76
25610;BME280;13479;49.044;8.716;2023-04-06T08:21:34;99377.75;;;27.23;15.56
25610;BME280;13479;49.044;8.716;2023-04-06T08:24:00;99382.28;;;27.41;15.64
25610;BME280;13479;49.044;8.716;2023-04-06T08:26:25;99378.19;;;27.74;15.40
25610;BME280;13479;49.044;8.716;2023-04-06T08:28:51;99374.09;;;28.89;14.33
25610;BME280;13479;49.044;8.716;2023-04-06T08:31:16;99372.44;;;29.34;14.05
25610;BME280;13479;49.044;8.716;2023-04-06T08:33:41;99374.69;;;28.50;14.23
25610;BME280;13479;49.044;8.716;2023-04-06T08:36:12;99365.03;;;27.83;14.71
25610;BME280;13479;49.044;8.716;2023-04-06T08:38:38;99376.00;;;28.47;14.35
25610;BME280;13479;49.044;8.716;2023-04-06T08:41:08;99371.44;;;29.23;14.51
25610;BME280;13479;49.044;8.716;2023-04-06T08:43:48;99374.06;;;29.18;13.94
25610;BME280;13479;49.044;8.716;2023-04-06T08:46:14;99373.34;;;28.12;14.83
25610;BME280;13479;49.044;8.716;2023-04-06T08:48:41;99383.53;;;28.04;14.97
25610;BME280;13479;49.044;8.716;2023-04-06T08:51:08;99370.44;;;28.83;14.30
25610;BME280;13479;49.044;8.716;2023-04-06T08:53:33;99373.59;;;29.89;13.40
25610;BME280;13479;49.044;8.716;2023-04-06T08:55:59;99375.38;;;29.15;13.95
25610;BME280;13479;49.044;8.716;2023-04-06T08:58:26;99376.50;;;29.65;13.91
25610;BME280;13479;49.044;8.716;2023-04-06T09:00:53;99371.31;;;30.64;13.80
25610;BME280;13479;49.044;8.716;2023-04-06T09:03:19;99375.22;;;30.96;13.09
25610;BME280;13479;49.044;8.716;2023-04-06T09:05:46;99372.75;;;31.22;12.60
25610;BME280;13479;49.044;8.716;2023-04-06T09:08:12;99364.69;;;31.42;12.33
25610;BME280;13479;49.044;8.716;2023-04-06T09:10:41;99365.03;;;31.19;12.99
25610;BME280;13479;49.044;8.716;2023-04-06T09:13:08;99364.81;;;31.58;12.16
25610;BME280;13479;49.044;8.716;2023-04-06T09:15:34;99365.63;;;31.96;11.99
25610;BME280;13479;49.044;8.716;2023-04-06T09:18:00;99366.19;;;32.52;11.80
25610;BME280;13479;49.044;8.716;2023-04-06T09:20:26;99362.09;;;32.64;11.98
25610;BME280;13479;49.044;8.716;2023-04-06T09:22:53;99360.00;;;33.08;11.58
25610;BME280;13479;49.044;8.716;2023-04-06T09:25:21;99366.66;;;33.38;11.71
25610;BME280;13479;49.044;8.716;2023-04-06T09:27:48;99373.25;;;32.37;10.94
25610;BME280;13479;49.044;8.716;2023-04-06T09:30:15;99358.69;;;31.51;11.57
25610;BME280;13479;49.044;8.716;2023-04-06T09:32:56;99357.28;;;31.81;11.04
25610;BME280;13479;49.044;8.716;2023-04-06T09:35:22;99368.47;;;32.17;10.87
25610;BME280;13479;49.044;8.716;2023-04-06T09:37:49;99358.34;;;31.75;11.31
25610;BME280;13479;49.044;8.716;2023-04-06T09:40:15;99351.34;;;31.56;11.43
25610;BME280;13479;49.044;8.716;2023-04-06T09:42:45;99362.44;;;30.35;11.84
25610;BME280;13479;49.044;8.716;2023-04-06T09:45:11;99356.16;;;29.78;11.82
25610;BME280;13479;49.044;8.716;2023-04-06T09:47:37;99351.53;;;29.96;11.60
25610;BME280;13479;49.044;8.716;2023-04-06T09:50:03;99347.34;;;30.32;11.53
25610;BME280;13479;49.044;8.716;2023-04-06T09:52:33;99348.50;;;30.59;11.42
25610;BME280;13479;49.044;8.716;2023-04-06T09:55:02;99336.25;;;30.66;11.02
25610;BME280;13479;49.044;8.716;2023-04-06T09:57:32;99346.53;;;30.54;11.33
25610;BME280;13479;49.044;8.716;2023-04-06T10:05:52;99348.66;;;27.05;13.24
25610;BME280;13479;49.044;8.716;2023-04-06T10:08:19;99350.06;;;25.72;14.38
25610;BME280;13479;49.044;8.716;2023-04-06T10:10:46;99351.59;;;25.36;14.71
25610;BME280;13479;49.044;8.716;2023-04-06T10:13:12;99342.03;;;25.26;14.73
25610;BME280;13479;49.044;8.716;2023-04-06T10:15:38;99334.47;;;25.61;14.19
25610;BME280;13479;49.044;8.716;2023-04-06T10:18:04;99321.69;;;26.24;14.36
25610;BME280;13479;49.044;8.716;2023-04-06T10:20:38;99312.94;;;27.13;13.36
25610;BME280;13479;49.044;8.716;2023-04-06T10:25:52;99293.97;;;28.13;12.81
25610;BME280;13479;49.044;8.716;2023-04-06T10:28:19;99305.34;;;28.51;12.83
25610;BME280;13479;49.044;8.716;2023-04-06T10:30:45;99299.19;;;28.44;12.70
25610;BME280;13479;49.044;8.716;2023-04-06T10:33:19;99307.19;;;27.57;12.79
25610;BME280;13479;49.044;8.716;2023-04-06T10:35:44;99304.63;;;27.08;12.82
25610;BME280;13479;49.044;8.716;2023-04-06T10:38:10;99299.84;;;26.91;13.26
25610;BME280;13479;49.044;8.716;2023-04-06T10:40:40;99300.22;;;27.07;13.50
25610;BME280;13479;49.044;8.716;2023-04-06T10:45:34;99301.78;;;25.86;13.92
25610;BME280;13479;49.044;8.716;2023-04-06T10:48:00;99300.94;;;25.67;14.27
25610;BME280;13479;49.044;8.716;2023-04-06T10:50:27;99292.41;;;25.12;14.75
25610;BME280;13479;49.044;8.716;2023-04-06T10:53:02;99286.91;;;25.19;14.48
25610;BME280;13479;49.044;8.716;2023-04-06T10:55:28;99277.75;;;24.88;14.77
25610;BME280;13479;49.044;8.716;2023-04-06T10:57:54;99275.44;;;24.53;15.36
25610;BME280;13479;49.044;8.716;2023-04-06T11:00:20;99271.44;;;24.17;15.39
25610;BME280;13479;49.044;8.716;2023-04-06T11:02:46;99274.16;;;24.56;15.57
25610;BME280;13479;49.044;8.716;2023-04-06T11:05:12;99273.03;;;25.02;15.70
25610;BME280;13479;49.044;8.716;2023-04-06T11:07:41;99269.00;;;25.37;15.36
25610;BME280;13479;49.044;8.716;2023-04-06T11:10:07;99260.56;;;24.94;15.21
25610;BME280;13479;49.044;8.716;2023-04-06T11:12:33;99247.06;;;24.49;15.62
25610;BME280;13479;49.044;8.716;2023-04-06T11:15:03;99244.19;;;24.44;16.46
25610;BME280;13479;49.044;8.716;2023-04-06T11:17:36;99252.59;;;24.35;16.64
25610;BME280;13479;49.044;8.716;2023-04-06T11:20:03;99253.19;;;23.92;16.92
25610;BME280;13479;49.044;8.716;2023-04-06T11:22:30;99247.31;;;23.88;16.28
25610;BME280;13479;49.044;8.716;2023-04-06T11:25:05;99239.94;;;23.17;16.68
25610;BME280;13479;49.044;8.716;2023-04-06T11:27:32;99231.16;;;22.47;17.60
25610;BME280;13479;49.044;8.716;2023-04-06T11:30:01;99231.38;;;21.90;18.13
25610;BME280;13479;49.044;8.716;2023-04-06T11:32:27;99228.56;;;21.35;18.09
25610;BME280;13479;49.044;8.716;2023-04-06T11:34:53;99227.91;;;21.05;18.50
25610;BME280;13479;49.044;8.716;2023-04-06T11:37:19;99228.56;;;20.63;18.29
25610;BME280;13479;49.044;8.716;2023-04-06T11:39:52;99216.66;;;20.14;19.25
25610;BME280;13479;49.044;8.716;2023-04-06T11:42:25;99211.41;;;19.91;19.05
25610;BME280;13479;49.044;8.716;2023-04-06T11:44:53;99206.56;;;19.71;20.03
25610;BME280;13479;49.044;8.716;2023-04-06T11:47:20;99212.69;;;19.65;19.61
25610;BME280;13479;49.044;8.716;2023-04-06T11:49:52;99201.84;;;19.58;19.96
25610;BME280;13479;49.044;8.716;2023-04-06T11:54:44;99212.69;;;19.35;22.74
25610;BME280;13479;49.044;8.716;2023-04-06T11:57:10;99219.09;;;19.34;22.11
25610;BME280;13479;49.044;8.716;2023-04-06T11:59:35;99209.75;;;19.30;21.40
25610;BME280;13479;49.044;8.716;2023-04-06T12:02:02;99197.47;;;19.12;20.76
25610;BME280;13479;49.044;8.716;2023-04-06T12:04:28;99188.72;;;19.10;21.05
25610;BME280;13479;49.044;8.716;2023-04-06T12:06:54;99187.84;;;18.80;22.36
25610;BME280;13479;49.044;8.716;2023-04-06T12:09:20;99182.47;;;18.80;21.10
25610;BME280;13479;49.044;8.716;2023-04-06T12:11:45;99176.97;;;18.73;22.14
25610;BME280;13479;49.044;8.716;2023-04-06T12:14:11;99174.81;;;18.68;24.00
25610;BME280;13479;49.044;8.716;2023-04-06T12:16:36;99193.09;;;18.73;24.78
25610;BME280;13479;49.044;8.716;2023-04-06T12:19:02;99193.44;;;18.70;24.03
25610;BME280;13479;49.044;8.716;2023-04-06T12:21:28;99193.75;;;18.52;22.99
25610;BME280;13479;49.044;8.716;2023-04-06T12:23:54;99171.66;;;18.42;23.00
25610;BME280;13479;49.044;8.716;2023-04-06T12:26:20;99171.22;;;18.30;22.01
25610;BME280;13479;49.044;8.716;2023-04-06T12:28:46;99163.97;;;18.15;21.97
25610;BME280;13479;49.044;8.716;2023-04-06T12:31:18;99154.16;;;18.23;22.80
25610;BME280;13479;49.044;8.716;2023-04-06T12:33:49;99146.41;;;18.28;22.26
25610;BME280;13479;49.044;8.716;2023-04-06T12:36:15;99140.38;;;18.26;22.28
25610;BME280;13479;49.044;8.716;2023-04-06T12:38:41;99138.88;;;18.00;22.63
25610;BME280;13479;49.044;8.716;2023-04-06T12:41:06;99145.31;;;18.14;23.90
25610;BME280;13479;49.044;8.716;2023-04-06T12:43:32;99142.94;;;18.19;23.52
25610;BME280;13479;49.044;8.716;2023-04-06T12:45:57;99156.81;;;17.68;22.19
25610;BME280;13479;49.044;8.716;2023-04-06T12:48:23;99144.97;;;17.54;23.32
25610;BME280;13479;49.044;8.716;2023-04-06T12:50:59;99137.44;;;17.49;23.03
25610;BME280;13479;49.044;8.716;2023-04-06T12:53:25;99132.38;;;17.54;25.38
25610;BME280;13479;49.044;8.716;2023-04-06T12:55:51;99145.13;;;17.52;24.75
25610;BME280;13479;49.044;8.716;2023-04-06T12:58:17;99145.75;;;17.63;24.28
25610;BME280;13479;49.044;8.716;2023-04-06T13:00:42;99138.63;;;17.78;25.13
25610;BME280;13479;49.044;8.716;2023-04-06T13:03:07;99148.34;;;17.79;25.10
25610;BME280;13479;49.044;8.716;2023-04-06T13:05:33;99137.94;;;17.84;24.37
25610;BME280;13479;49.044;8.716;2023-04-06T13:07:58;99134.97;;;17.71;24.40
25610;BME280;13479;49.044;8.716;2023-04-06T13:10:23;99122.72;;;17.28;25.54
25610;BME280;13479;49.044;8.716;2023-04-06T13:12:49;99126.78;;;17.24;24.98
25610;BME280;13479;49.044;8.716;2023-04-06T13:15:14;99113.72;;;17.21;24.53
25610;BME280;13479;49.044;8.716;2023-04-06T13:17:40;99110.84;;;17.23;23.85
25610;BME280;13479;49.044;8.716;2023-04-06T13:20:06;99111.38;;;17.18;24.49
25610;BME280;13479;49.044;8.716;2023-04-06T13:22:31;99113.22;;;17.18;24.69
25610;BME280;13479;49.044;8.716;2023-04-06T13:24:57;99104.19;;;17.19;24.86
25610;BME280;13479;49.044;8.716;2023-04-06T13:27:22;99104.13;;;17.27;24.11
25610;BME280;13479;49.044;8.716;2023-04-06T13:29:47;99099.09;;;17.32;24.29
25610;BME280;13479;49.044;8.716;2023-04-06T13:32:13;99094.75;;;17.23;24.36
25610;BME280;13479;49.044;8.716;2023-04-06T13:34:39;99095.09;;;17.28;24.40
25610;BME280;13479;49.044;8.716;2023-04-06T13:37:05;99088.91;;;17.19;24.82
25610;BME280;13479;49.044;8.716;2023-04-06T13:39:31;99088.19;;;17.34;24.96
25610;BME280;13479;49.044;8.716;2023-04-06T13:41:57;99091.72;;;17.26;25.53
25610;BME280;13479;49.044;8.716;2023-04-06T13:44:22;99095.25;;;17.26;25.50
25610;BME280;13479;49.044;8.716;2023-04-06T13:46:47;99097.31;;;17.08;26.56
25610;BME280;13479;49.044;8.716;2023-04-06T13:49:13;99100.38;;;17.05;24.96
25610;BME280;13479;49.044;8.716;2023-04-06T13:51:38;99101.03;;;16.90;24.85
25610;BME280;13479;49.044;8.716;2023-04-06T13:54:04;99084.66;;;16.77;26.32
25610;BME280;13479;49.044;8.716;2023-04-06T13:56:30;99085.69;;;16.67;26.71
25610;BME280;13479;49.044;8.716;2023-04-06T13:58:55;99091.69;;;16.61;26.27
25610;BME280;13479;49.044;8.716;2023-04-06T14:01:21;99094.25;;;16.38;25.25
25610;BME280;13479;49.044;8.716;2023-04-06T14:03:48;99088.38;;;16.43;25.09
25610;BME280;13479;49.044;8.716;2023-04-06T14:06:13;99078.66;;;16.50;26.14
25610;BME280;13479;49.044;8.716;2023-04-06T14:08:39;99080.66;;;16.56;26.00
25610;BME280;13479;49.044;8.716;2023-04-06T14:11:04;99073.97;;;16.27;25.92
25610;BME280;13479;49.044;8.716;2023-04-06T14:13:33;99079.50;;;16.34;25.76
25610;BME280;13479;49.044;8.716;2023-04-06T14:15:58;99079.19;;;16.37;25.46
25610;BME280;13479;49.044;8.716;2023-04-06T14:18:23;99064.75;;;16.63;26.06
25610;BME280;13479;49.044;8.716;2023-04-06T14:20:55;99072.97;;;16.53;26.41
25610;BME280;13479;49.044;8.716;2023-04-06T14:23:21;99078.97;;;16.63;25.69
25610;BME280;13479;49.044;8.716;2023-04-06T14:25:47;99078.47;;;16.60;25.56
25610;BME280;13479;49.044;8.716;2023-04-06T14:28:12;99070.25;;;16.61;25.83
25610;BME280;13479;49.044;8.716;2023-04-06T14:30:37;99071.94;;;16.71;25.38
25610;BME280;13479;49.044;8.716;2023-04-06T14:33:03;99068.56;;;16.77;25.37
25610;BME280;13479;49.044;8.716;2023-04-06T14:35:28;99073.59;;;16.80;25.50
25610;BME280;13479;49.044;8.716;2023-04-06T14:37:56;99066.19;;;16.98;25.50
25610;BME280;13479;49.044;8.716;2023-04-06T14:40:23;99070.06;;;16.96;25.36
25610;BME280;13479;49.044;8.716;2023-04-06T14:42:48;99071.84;;;17.12;24.78
25610;BME280;13479;49.044;8.716;2023-04-06T14:45:15;99072.47;;;17.22;23.62
25610;BME280;13479;49.044;8.716;2023-04-06T14:47:42;99089.91;;;17.26;22.97
25610;BME280;13479;49.044;8.716;2023-04-06T14:50:08;99085.88;;;17.22;22.87
25610;BME280;13479;49.044;8.716;2023-04-06T14:52:33;99090.59;;;17.20;22.57
25610;BME280;13479;49.044;8.716;2023-04-06T14:54:58;99098.97;;;17.17;22.45
25610;BME280;13479;49.044;8.716;2023-04-06T14:57:24;99090.38;;;17.30;22.21
25610;BME280;13479;49.044;8.716;2023-04-06T14:59:52;99088.50;;;17.39;21.59
25610;BME280;13479;49.044;8.716;2023-04-06T15:02:18;99085.16;;;17.37;22.77
25610;BME280;13479;49.044;8.716;2023-04-06T15:04:43;99093.88;;;17.39;23.15
25610;BME280;13479;49.044;8.716;2023-04-06T15:07:08;99098.09;;;17.33;22.64
25610;BME280;13479;49.044;8.716;2023-04-06T15:09:35;99112.00;;;17.28;21.76
25610;BME280;13479;49.044;8.716;2023-04-06T15:12:00;99109.53;;;17.19;21.66
25610;BME280;13479;49.044;8.716;2023-04-06T15:14:26;99102.16;;;17.12;21.83
25610;BME280;13479;49.044;8.716;2023-04-06T15:16:51;99101.00;;;17.07;21.20
25610;BME280;13479;49.044;8.716;2023-04-06T15:19:16;99100.81;;;17.17;20.96
25610;BME280;13479;49.044;8.716;2023-04-06T15:21:42;99105.72;;;17.13;20.86
25610;BME280;13479;49.044;8.716;2023-04-06T15:24:07;99101.03;;;16.90;20.81
25610;BME280;13479;49.044;8.716;2023-04-06T15:26:34;99098.38;;;16.82;21.54
25610;BME280;13479;49.044;8.716;2023-04-06T15:29:00;99091.50;;;16.88;21.86
25610;BME280;13479;49.044;8.716;2023-04-06T15:31:26;99101.72;;;16.84;22.83
25610;BME280;13479;49.044;8.716;2023-04-06T15:33:51;99096.03;;;16.79;23.35
25610;BME280;13479;49.044;8.716;2023-04-06T15:36:25;99102.91;;;16.81;22.72
25610;BME280;13479;49.044;8.716;2023-04-06T15:38:51;99106.78;;;16.71;22.50
25610;BME280;13479;49.044;8.716;2023-04-06T15:41:17;99083.97;;;16.83;23.73
25610;BME280;13479;49.044;8.716;2023-04-06T15:43:42;99097.38;;;16.75;23.55
25610;BME280;13479;49.044;8.716;2023-04-06T15:46:07;99096.41;;;16.59;22.94
25610;BME280;13479;49.044;8.716;2023-04-06T15:48:33;99100.41;;;16.63;22.56
25610;BME280;13479;49.044;8.716;2023-04-06T15:50:59;99101.59;;;16.44;23.09
25610;BME280;13479;49.044;8.716;2023-04-06T15:53:24;99091.72;;;16.28;23.54
25610;BME280;13479;49.044;8.716;2023-04-06T15:55:49;99083.38;;;16.23;23.43
25610;BME280;13479;49.044;8.716;2023-04-06T15:58:15;99078.34;;;16.20;24.57
25610;BME280;13479;49.044;8.716;2023-04-06T16:00:40;99093.06;;;16.32;25.63
25610;BME280;13479;49.044;8.716;2023-04-06T16:03:05;99092.06;;;16.33;25.71
25610;BME280;13479;49.044;8.716;2023-04-06T16:05:31;99080.34;;;16.18;26.60
25610;BME280;13479;49.044;8.716;2023-04-06T16:07:56;99077.69;;;16.10;26.82
25610;BME280;13479;49.044;8.716;2023-04-06T16:10:21;99088.03;;;15.96;26.76
25610;BME280;13479;49.044;8.716;2023-04-06T16:12:47;99087.22;;;16.04;26.43
25610;BME280;13479;49.044;8.716;2023-04-06T16:15:12;99075.31;;;15.98;26.35
25610;BME280;13479;49.044;8.716;2023-04-06T16:17:37;99074.66;;;15.88;25.82
25610;BME280;13479;49.044;8.716;2023-04-06T16:20:03;99073.63;;;15.81;26.53
25610;BME280;13479;49.044;8.716;2023-04-06T16:22:29;99069.91;;;15.65;26.86
25610;BME280;13479;49.044;8.716;2023-04-06T16:24:54;99065.22;;;15.59;27.73
25610;BME280;13479;49.044;8.716;2023-04-06T16:27:19;99058.50;;;15.55;26.97
25610;BME280;13479;49.044;8.716;2023-04-06T16:29:45;99066.84;;;15.52;26.94
25610;BME280;13479;49.044;8.716;2023-04-06T16:32:12;99064.09;;;15.27;27.72
25610;BME280;13479;49.044;8.716;2023-04-06T16:34:38;99062.38;;;15.18;27.99
25610;BME280;13479;49.044;8.716;2023-04-06T16:37:03;99068.91;;;15.15;28.94
25610;BME280;13479;49.044;8.716;2023-04-06T16:39:28;99072.47;;;14.97;29.03
25610;BME280;13479;49.044;8.716;2023-04-06T16:41:54;99071.34;;;15.00;28.89
25610;BME280;13479;49.044;8.716;2023-04-06T16:44:20;99059.94;;;14.90;28.68
25610;BME280;13479;49.044;8.716;2023-04-06T16:46:46;99064.94;;;14.93;29.13
25610;BME280;13479;49.044;8.716;2023-04-06T16:49:12;99060.72;;;14.82;29.08
25610;BME280;13479;49.044;8.716;2023-04-06T16:51:39;99062.81;;;14.70;29.22
25610;BME280;13479;49.044;8.716;2023-04-06T16:54:05;99061.75;;;14.63;29.34
25610;BME280;13479;49.044;8.716;2023-04-06T16:56:30;99050.97;;;14.46;29.76
25610;BME280;13479;49.044;8.716;2023-04-06T16:58:56;99051.09;;;14.45;29.63
25610;BME280;13479;49.044;8.716;2023-04-06T17:01:24;99052.56;;;14.39;29.27
25610;BME280;13479;49.044;8.716;2023-04-06T17:03:50;99044.22;;;14.34;29.54
25610;BME280;13479;49.044;8.716;2023-04-06T17:06:16;99049.38;;;14.35;30.02
25610;BME280;13479;49.044;8.716;2023-04-06T17:08:44;99055.41;;;14.38;30.17
25610;BME280;13479;49.044;8.716;2023-04-06T17:11:11;99050.16;;;14.28;30.35